Overview Statistics Trail Chart Weather Telemetry Raw packets
 

This is the latest recevied telemetry packets stored in our database for station/object DA6GD-01. If no packets are shown the sender has not sent any telemetry packets the latest 10 day(s).

Telemetry packets is used to share measurements like repeteater parameters, battery voltage, radiation readings (or any other measurements).

<< 1 2 3 4 >>
Time Press* Temp.in* Hum* QNH* Temp.out*
1788583799 1005.5 hPa 24.5 C deg 59.9 % 1016.3 hPa 0 C deg
1788581969 1005.1 hPa 24.5 C deg 60.5 % 1015.9 hPa 0 C deg
1788580145 1004.9 hPa 24.5 C deg 61.4 % 1015.7 hPa 0 C deg
1788578316 1004.9 hPa 24.6 C deg 62 % 1015.6 hPa 0 C deg
1788575837 1004.8 hPa 24.6 C deg 62.2 % 1015.5 hPa 0 C deg
1788571572 1004.3 hPa 24.7 C deg 62.4 % 1015.1 hPa 0 C deg
1788571553 1004.3 hPa 24.7 C deg 62.4 % 1015.1 hPa 0 C deg
1788569286 1004.3 hPa 24.8 C deg 62.6 % 1015 hPa 0 C deg
1788567448 1004.2 hPa 24.9 C deg 63 % 1015 hPa 0 C deg
1788565621 1004.2 hPa 24.9 C deg 63.5 % 1014.9 hPa 0 C deg
1788563898 1004.1 hPa 24.9 C deg 63.4 % 1014.8 hPa 0 C deg
1788562071 1003.8 hPa 25 C deg 63.4 % 1014.6 hPa 0 C deg
1788557810 1003.1 hPa 25.1 C deg 63.7 % 1013.9 hPa 0 C deg
1788555698 1002.8 hPa 25.1 C deg 63.6 % 1013.6 hPa 0 C deg
1788553867 1002.6 hPa 25.2 C deg 63.9 % 1013.3 hPa 0 C deg
1788550034 1002.1 hPa 25.3 C deg 63.3 % 1012.8 hPa 0 C deg
1788549761 1002.1 hPa 25.3 C deg 63.3 % 1012.8 hPa 0 C deg
1788549401 1002 hPa 25.3 C deg 62.8 % 1012.7 hPa 0 C deg
1788546360 1001.2 hPa 26.1 C deg 61.1 % 1012.6 hPa 0 C deg
1788545422 1000.9 hPa 25.5 C deg 62.6 % 1011.8 hPa 0 C deg
1788543594 1000.5 hPa 25.5 C deg 62.4 % 1011.4 hPa 0 C deg
1788539237 1000 hPa 25.6 C deg 61 % 1010.8 hPa 0 C deg
1788537406 1000 hPa 25.7 C deg 60.9 % 1010.9 hPa 0 C deg
1788536671 1000 hPa 25.8 C deg 61.2 % 1010.9 hPa 0 C deg
1788536658 1000 hPa 25.8 C deg 61.2 % 1010.9 hPa 0 C deg
*Used Equation Coefficients:
Press: 0, 1, 0
Temp.in: 0, 1, 0
Hum: 0, 1, 0
QNH: 0, 1, 0
Temp.out: 0, 1, 0

  • The parameter names for the analog channels will be Value1, Value2, Value3 (up to Value5) if station has not sent a PARAM-packet that specifies the parameter names for each analog channel.
  • Each analog value is a decimal number between 000 and 255 (according to APRS specifications). The receiver use the telemetry equation coefficientsto to restore the original sensor values. If no EQNS-packet with equation coefficients is sent we will show the values as is (this corresponds to the equation coefficients a=0, b=1 and c=0).
    The sent equation coefficients is used in the equation: a * value2 + b * value + c.
  • The units for the analog values will not be shown if station has not sent a UNIT-packet specifying what unit's to use.
  • The parameter names for the digital bits will be Bit1, Bit2, Bit3 (up to Bit8) if station has not sent a PARAM-packet that specifies the parameter names for each digital bit.
  • All bit labels will be named "On" if station has not sent a UNIT-packet that specifies the label of each bit.
  • A bit is considered to be On when the bit is 1 if station has not sent a BITS-packet that specifies another "Bit sense" (a BITS-packet specify the state of the bits that match the BIT labels)